createdAt,value
2017-04-28T00:00:59.540Z,58.10
2017-04-28T00:03:26.578Z,58.70
2017-04-28T00:05:53.911Z,58.40
2017-04-28T00:08:20.966Z,58.20
2017-04-28T00:10:47.983Z,57.80
2017-04-28T00:13:15.005Z,58.00
2017-04-28T00:15:42.804Z,57.90
2017-04-28T00:18:09.873Z,57.70
2017-04-28T00:20:36.938Z,57.70
2017-04-28T00:23:04.734Z,57.30
2017-04-28T00:25:31.780Z,57.30
2017-04-28T00:27:59.314Z,57.70
2017-04-28T00:30:27.089Z,57.30
2017-04-28T00:32:54.863Z,57.20
2017-04-28T00:35:22.308Z,57.30
2017-04-28T00:37:50.044Z,57.60
2017-04-28T00:40:17.080Z,57.20
2017-04-28T00:42:44.155Z,56.60
2017-04-28T00:45:11.195Z,57.40
2017-04-28T00:47:38.558Z,56.80
2017-04-28T00:50:05.568Z,56.70
2017-04-28T00:52:32.594Z,55.80
2017-04-28T00:54:59.628Z,56.10
2017-04-28T00:57:26.687Z,57.00
2017-04-28T00:59:53.844Z,57.00
2017-04-28T01:02:20.884Z,57.20
2017-04-28T01:04:48.307Z,56.60
2017-04-28T01:07:16.199Z,56.80
2017-04-28T01:09:43.270Z,56.60
2017-04-28T01:12:10.811Z,56.80
2017-04-28T01:14:37.828Z,57.10
2017-04-28T01:17:04.983Z,56.60
2017-04-28T01:19:32.020Z,56.80
2017-04-28T01:21:59.065Z,57.00
2017-04-28T01:24:26.857Z,57.60
2017-04-28T01:26:54.958Z,56.70
2017-04-28T01:29:22.061Z,57.80
2017-04-28T01:31:49.818Z,58.00
2017-04-28T01:34:16.845Z,57.20
2017-04-28T01:36:44.155Z,57.60
2017-04-28T01:39:12.273Z,58.20
2017-04-28T01:41:39.313Z,57.30
2017-04-28T01:44:06.343Z,56.80
2017-04-28T01:46:33.385Z,57.20
2017-04-28T01:49:00.442Z,57.20
2017-04-28T01:51:27.532Z,57.80
2017-04-28T01:53:54.564Z,58.20
2017-04-28T01:56:21.957Z,58.50
2017-04-28T01:58:49.002Z,58.80
2017-04-28T02:01:16.148Z,58.80
2017-04-28T02:03:44.012Z,59.20
2017-04-28T02:06:11.781Z,59.70
2017-04-28T02:08:39.322Z,59.10
2017-04-28T02:11:06.337Z,58.90
2017-04-28T02:13:33.662Z,58.80
2017-04-28T02:16:00.686Z,59.00
2017-04-28T02:18:27.714Z,59.20
2017-04-28T02:20:54.795Z,59.80
2017-04-28T02:23:21.944Z,60.00
2017-04-28T02:25:49.759Z,59.30
2017-04-28T02:28:16.817Z,59.20
2017-04-28T02:30:44.175Z,59.50
2017-04-28T02:33:11.189Z,59.30
2017-04-28T02:35:38.206Z,60.10
2017-04-28T02:38:06.001Z,59.70
2017-04-28T02:40:33.029Z,60.50
2017-04-28T02:43:01.085Z,61.10
2017-04-28T02:45:28.084Z,61.70
2017-04-28T02:47:55.176Z,61.50
2017-04-28T02:50:22.216Z,62.00
2017-04-28T02:52:49.257Z,61.40
2017-04-28T02:55:16.345Z,61.40
2017-04-28T02:57:43.405Z,61.80
2017-04-28T03:00:10.837Z,62.30
2017-04-28T03:02:37.875Z,62.80
2017-04-28T03:05:04.902Z,61.70
2017-04-28T03:07:31.937Z,61.70
2017-04-28T03:09:58.993Z,61.50
2017-04-28T03:12:26.049Z,62.00
2017-04-28T03:14:53.115Z,61.80
2017-04-28T03:17:21.206Z,62.40
2017-04-28T03:19:48.338Z,61.90
2017-04-28T03:22:15.349Z,61.70
2017-04-28T03:24:42.368Z,62.00
2017-04-28T03:27:09.419Z,62.10
2017-04-28T03:29:36.503Z,61.70
2017-04-28T03:32:03.546Z,61.50
2017-04-28T03:34:30.888Z,62.00
2017-04-28T03:36:57.937Z,62.20
2017-04-28T03:39:24.968Z,62.50
2017-04-28T03:41:52.008Z,62.30
2017-04-28T03:44:19.053Z,62.30
2017-04-28T03:46:46.068Z,62.80
2017-04-28T03:49:14.217Z,63.00
2017-04-28T03:51:41.545Z,63.20
2017-04-28T03:54:08.849Z,62.50
2017-04-28T03:56:35.984Z,62.40
2017-04-28T03:59:03.040Z,63.20
2017-04-28T04:01:30.410Z,63.30
2017-04-28T04:03:58.186Z,63.00
2017-04-28T04:06:25.255Z,63.30
2017-04-28T04:08:52.405Z,63.30
2017-04-28T04:11:20.247Z,63.30
2017-04-28T04:13:47.672Z,63.00
2017-04-28T04:16:15.492Z,62.70
2017-04-28T04:18:42.597Z,63.10
2017-04-28T04:21:09.681Z,64.20
2017-04-28T04:23:36.735Z,64.10
2017-04-28T04:26:04.149Z,63.90
2017-04-28T04:28:31.935Z,63.60
2017-04-28T04:30:59.688Z,64.10
2017-04-28T04:33:26.809Z,64.50
2017-04-28T04:35:53.849Z,64.20
2017-04-28T04:38:21.230Z,64.00
2017-04-28T04:40:49.036Z,64.20
2017-04-28T04:43:16.086Z,64.40
2017-04-28T04:45:43.137Z,63.70
2017-04-28T04:48:10.187Z,65.00
2017-04-28T04:50:37.600Z,64.60
2017-04-28T04:53:05.374Z,64.40
2017-04-28T04:55:32.462Z,64.90
2017-04-28T04:57:59.528Z,64.90
2017-04-28T05:00:26.607Z,64.90
2017-04-28T05:02:54.760Z,65.40
2017-04-28T05:05:21.814Z,64.60
2017-04-28T05:07:48.881Z,66.00
2017-04-28T05:10:15.997Z,65.90
2017-04-28T05:12:43.122Z,65.80
2017-04-28T05:15:10.257Z,66.10
2017-04-28T05:17:37.326Z,65.00
2017-04-28T05:20:04.655Z,65.00
2017-04-28T05:22:31.692Z,63.80
2017-04-28T05:24:58.714Z,64.40
2017-04-28T05:27:26.473Z,64.00
2017-04-28T05:29:53.528Z,63.60
2017-04-28T05:32:20.611Z,61.10
2017-04-28T05:34:47.671Z,60.80
2017-04-28T05:37:15.036Z,59.80
2017-04-28T05:39:42.136Z,60.50
2017-04-28T05:42:09.182Z,59.10
2017-04-28T05:44:36.281Z,58.80
2017-04-28T05:47:04.114Z,58.50
2017-04-28T05:49:31.166Z,58.80
2017-04-28T05:51:58.268Z,59.70
2017-04-28T05:54:25.679Z,58.70
2017-04-28T05:56:52.743Z,58.80
2017-04-28T05:59:20.549Z,58.80
2017-04-28T06:01:47.584Z,58.90
2017-04-28T06:04:14.619Z,59.20
2017-04-28T06:06:42.492Z,58.80
2017-04-28T06:09:09.529Z,59.30
2017-04-28T06:11:36.954Z,58.70
2017-04-28T06:14:04.753Z,58.90
2017-04-28T06:16:31.854Z,59.30
2017-04-28T06:18:58.935Z,59.20
2017-04-28T06:21:26.069Z,59.40
2017-04-28T06:23:53.865Z,59.00
2017-04-28T06:26:20.970Z,59.10
2017-04-28T06:28:48.369Z,59.70
2017-04-28T06:31:15.436Z,59.10
2017-04-28T06:33:42.565Z,59.60
2017-04-28T06:36:09.637Z,59.40
2017-04-28T06:38:36.720Z,59.40
2017-04-28T06:41:04.568Z,59.10
2017-04-28T06:43:31.663Z,59.10
2017-04-28T06:45:59.127Z,59.10
2017-04-28T06:48:26.229Z,58.30
2017-04-28T06:50:53.279Z,58.50
2017-04-28T06:53:20.363Z,58.90
2017-04-28T06:55:48.194Z,58.60
2017-04-28T06:58:15.239Z,58.10
2017-04-28T07:00:42.301Z,58.60
2017-04-28T07:03:10.283Z,58.70
2017-04-28T07:05:38.470Z,58.30
2017-04-28T07:08:06.268Z,58.00
2017-04-28T07:10:33.313Z,57.60
2017-04-28T07:13:00.384Z,57.50
2017-04-28T07:15:28.265Z,57.20
2017-04-28T07:17:55.325Z,56.00
2017-04-28T07:20:22.346Z,55.20
2017-04-28T07:22:49.736Z,55.30
2017-04-28T07:25:16.761Z,54.80
2017-04-28T07:27:43.828Z,55.30
2017-04-28T07:30:11.673Z,54.90
2017-04-28T07:32:38.712Z,53.30
2017-04-28T07:35:05.793Z,53.00
2017-04-28T07:37:33.604Z,52.50
2017-04-28T07:40:01.005Z,51.90
2017-04-28T07:42:28.046Z,51.80
2017-04-28T07:44:55.095Z,50.70
2017-04-28T07:47:22.166Z,50.20
2017-04-28T07:49:49.972Z,49.20
2017-04-28T07:52:17.002Z,49.80
2017-04-28T07:54:51.145Z,49.10
2017-04-28T07:57:18.534Z,48.70
2017-04-28T07:59:46.392Z,48.20
2017-04-28T08:02:13.474Z,48.50
2017-04-28T08:04:41.273Z,48.90
2017-04-28T08:07:08.321Z,49.40
2017-04-28T08:09:35.390Z,48.40
2017-04-28T08:12:02.469Z,49.20
2017-04-28T08:14:29.804Z,49.90
2017-04-28T08:16:56.832Z,49.70
2017-04-28T08:19:24.020Z,50.30
2017-04-28T08:21:51.845Z,48.00
2017-04-28T08:24:18.899Z,46.70
2017-04-28T08:26:45.956Z,46.70
2017-04-28T08:29:13.050Z,47.60
2017-04-28T08:31:40.496Z,47.20
2017-04-28T08:34:07.577Z,47.70
2017-04-28T08:36:34.645Z,46.50
2017-04-28T08:39:01.720Z,47.20
2017-04-28T08:41:28.756Z,47.30
2017-04-28T08:43:55.840Z,47.50
2017-04-28T08:46:22.899Z,46.70
2017-04-28T08:48:50.301Z,45.50
2017-04-28T08:51:18.082Z,45.90
2017-04-28T08:53:45.150Z,45.70
2017-04-28T08:56:12.232Z,47.10
2017-04-28T08:58:39.304Z,46.70
2017-04-28T09:01:06.412Z,45.90
2017-04-28T09:03:33.485Z,46.10
2017-04-28T09:06:00.849Z,44.50
2017-04-28T09:08:27.901Z,44.90
2017-04-28T09:10:55.737Z,44.70
2017-04-28T09:13:22.812Z,45.00
2017-04-28T09:15:49.861Z,43.60
2017-04-28T09:18:16.967Z,44.80
2017-04-28T09:20:44.052Z,44.70
2017-04-28T09:23:11.366Z,42.90
2017-04-28T09:25:38.429Z,43.60
2017-04-28T09:28:05.514Z,43.50
2017-04-28T09:30:32.616Z,43.40
2017-04-28T09:32:59.661Z,44.00
2017-04-28T09:35:26.703Z,42.40
2017-04-28T09:37:53.783Z,41.90
2017-04-28T09:40:21.192Z,40.20
2017-04-28T09:42:48.266Z,40.50
2017-04-28T09:45:15.363Z,42.10
2017-04-28T09:47:42.872Z,42.60
2017-04-28T09:50:09.942Z,41.40
2017-04-28T09:52:37.755Z,41.30
2017-04-28T09:55:04.842Z,41.60
2017-04-28T09:57:32.195Z,41.50
2017-04-28T10:00:00.016Z,42.70
2017-04-28T10:02:27.098Z,40.40
2017-04-28T10:04:54.150Z,39.80
2017-04-28T10:07:21.210Z,42.00
2017-04-28T10:09:49.025Z,39.10
2017-04-28T10:12:16.067Z,39.50
2017-04-28T10:14:43.148Z,36.90
2017-04-28T10:17:10.244Z,37.10
2017-04-28T10:19:37.310Z,40.00
2017-04-28T10:22:04.404Z,41.20
2017-04-28T10:24:32.385Z,41.30
2017-04-28T10:26:59.469Z,41.40
2017-04-28T10:29:26.900Z,40.90
2017-04-28T10:31:54.692Z,40.80
2017-04-28T10:34:21.753Z,41.00
2017-04-28T10:36:48.795Z,40.00
2017-04-28T10:39:15.888Z,39.90
2017-04-28T10:41:43.021Z,40.60
2017-04-28T10:44:10.057Z,39.90
2017-04-28T10:46:37.464Z,39.60
2017-04-28T10:49:04.712Z,40.10
2017-04-28T10:51:32.492Z,38.90
2017-04-28T10:53:59.560Z,39.00
2017-04-28T10:56:26.610Z,38.50
2017-04-28T10:58:54.477Z,39.20
2017-04-28T11:03:21.576Z,38.30
2017-04-28T11:05:48.594Z,37.10
2017-04-28T11:08:15.635Z,37.40
2017-04-28T11:10:42.681Z,37.50
2017-04-28T11:13:09.775Z,38.40
2017-04-28T11:15:37.581Z,37.50
2017-04-28T11:18:04.602Z,36.60
2017-04-28T11:20:32.048Z,35.80
2017-04-28T11:22:59.865Z,37.00
2017-04-28T11:25:26.922Z,35.90
2017-04-28T11:27:53.941Z,35.60
2017-04-28T11:30:20.985Z,35.60
2017-04-28T11:32:48.075Z,35.50
2017-04-28T11:35:15.505Z,35.20
2017-04-28T11:37:42.912Z,36.80
2017-04-28T11:40:09.992Z,34.20
2017-04-28T11:42:37.012Z,33.60
2017-04-28T11:45:04.813Z,33.80
2017-04-28T11:47:31.867Z,36.40
2017-04-28T11:49:59.530Z,34.20
2017-04-28T11:52:26.577Z,33.50
2017-04-28T11:54:53.912Z,32.10
2017-04-28T11:57:20.981Z,33.30
2017-04-28T11:59:48.071Z,33.20
2017-04-28T12:02:15.144Z,33.10
2017-04-28T12:04:42.191Z,33.00
2017-04-28T12:07:09.248Z,32.90
2017-04-28T12:09:36.298Z,34.20
2017-04-28T12:12:03.704Z,32.80
2017-04-28T12:14:31.477Z,32.90
2017-04-28T12:16:58.517Z,31.40
2017-04-28T12:19:26.285Z,32.30
2017-04-28T12:21:53.470Z,31.70
2017-04-28T12:24:20.517Z,30.00
2017-04-28T12:26:47.552Z,29.20
2017-04-28T12:29:14.975Z,29.40
2017-04-28T12:31:42.283Z,29.20
2017-04-28T12:34:09.353Z,30.10
2017-04-28T12:36:36.413Z,29.40
2017-04-28T12:39:04.206Z,29.30
2017-04-28T12:41:31.411Z,29.20
2017-04-28T12:43:58.462Z,29.90
2017-04-28T12:46:26.901Z,30.00
2017-04-28T12:48:53.993Z,33.70
2017-04-28T12:51:21.029Z,36.30
2017-04-28T12:53:48.585Z,38.00
2017-04-28T12:56:15.655Z,37.60
2017-04-28T12:58:42.689Z,37.80
2017-04-28T13:01:09.776Z,38.90
2017-04-28T13:03:36.837Z,37.30
2017-04-28T13:06:04.531Z,36.10
2017-04-28T13:08:32.313Z,36.20
2017-04-28T13:10:59.385Z,38.90
2017-04-28T13:13:26.438Z,40.10
2017-04-28T13:15:53.516Z,39.50
2017-04-28T13:18:21.334Z,39.00
2017-04-28T13:20:48.400Z,40.00
2017-04-28T13:23:15.527Z,39.70
2017-04-28T13:25:42.621Z,40.70
2017-04-28T13:28:09.994Z,39.90
2017-04-28T13:30:37.860Z,40.00
2017-04-28T13:33:04.926Z,41.40
2017-04-28T13:35:32.027Z,40.00
2017-04-28T13:37:59.103Z,40.20
2017-04-28T13:40:26.168Z,41.90
2017-04-28T13:42:53.237Z,40.20
2017-04-28T13:45:20.617Z,39.00
2017-04-28T13:47:47.697Z,39.00
2017-04-28T13:50:14.773Z,38.10
2017-04-28T13:52:41.841Z,37.20
2017-04-28T13:55:08.893Z,37.70
2017-04-28T13:57:35.967Z,37.50
2017-04-28T14:00:03.030Z,38.50
2017-04-28T14:02:30.473Z,38.60
2017-04-28T14:04:58.272Z,39.40
2017-04-28T14:07:25.341Z,39.60
2017-04-28T14:09:52.520Z,40.20
2017-04-28T14:12:19.586Z,40.60
2017-04-28T14:14:46.658Z,38.50
2017-04-28T14:17:13.869Z,38.50
2017-04-28T14:19:42.116Z,39.60
2017-04-28T14:22:09.192Z,38.60
2017-04-28T14:24:36.940Z,38.50
2017-04-28T14:27:04.189Z,39.50
2017-04-28T14:29:31.280Z,40.40
2017-04-28T14:31:58.337Z,41.20
2017-04-28T14:34:25.398Z,40.20
2017-04-28T14:36:52.792Z,40.10
2017-04-28T14:39:20.592Z,39.70
2017-04-28T14:41:47.648Z,37.80
2017-04-28T14:44:14.704Z,38.50
2017-04-28T14:46:41.845Z,39.00
2017-04-28T14:49:08.922Z,39.50
2017-04-28T14:51:35.978Z,39.10
2017-04-28T14:54:03.350Z,39.30
2017-04-28T14:56:31.098Z,41.10
2017-04-28T14:58:58.147Z,40.70
2017-04-28T15:01:25.229Z,41.20
2017-04-28T15:03:52.257Z,40.50
2017-04-28T15:06:19.458Z,40.70
2017-04-28T15:08:46.545Z,40.90
2017-04-28T15:11:13.889Z,42.40
2017-04-28T15:13:40.925Z,42.60
2017-04-28T15:16:08.007Z,41.90
2017-04-28T15:18:35.093Z,42.70
2017-04-28T15:21:02.129Z,43.40
2017-04-28T15:23:29.201Z,43.50
2017-04-28T15:25:56.281Z,44.20
2017-04-28T15:28:24.474Z,44.30
2017-04-28T15:30:51.520Z,44.50
2017-04-28T15:33:19.297Z,45.10
2017-04-28T15:35:46.996Z,44.90
2017-04-28T15:38:14.061Z,45.10
2017-04-28T15:40:41.073Z,45.60
2017-04-28T15:43:08.127Z,45.80
2017-04-28T15:45:35.541Z,46.10
2017-04-28T15:48:03.344Z,45.60
2017-04-28T15:50:30.375Z,45.60
2017-04-28T15:52:57.426Z,45.30
2017-04-28T15:55:24.470Z,45.40
2017-04-28T15:57:51.913Z,46.50
2017-04-28T16:00:18.984Z,44.60
2017-04-28T16:02:46.016Z,44.90
2017-04-28T16:05:13.105Z,44.50
2017-04-28T16:07:40.228Z,44.90
2017-04-28T16:10:09.273Z,46.00
2017-04-28T16:12:36.345Z,45.80
2017-04-28T16:15:03.380Z,46.10
2017-04-28T16:17:31.197Z,46.10
2017-04-28T16:19:58.258Z,46.80
2017-04-28T16:22:25.343Z,49.10
2017-04-28T16:24:53.187Z,49.70
2017-04-28T16:27:20.550Z,50.30
2017-04-28T16:29:47.584Z,49.60
2017-04-28T16:32:14.617Z,48.60
2017-04-28T16:34:41.744Z,48.30
2017-04-28T16:37:09.675Z,47.00
2017-04-28T16:39:36.840Z,46.10
2017-04-28T16:42:03.997Z,46.10
2017-04-28T16:44:31.467Z,46.10
2017-04-28T16:46:58.616Z,44.00
2017-04-28T16:49:25.768Z,43.90
2017-04-28T16:51:52.983Z,43.70
2017-04-28T16:54:20.183Z,45.00
2017-04-28T16:56:47.451Z,44.20
2017-04-28T16:59:14.669Z,44.90
2017-04-28T17:01:42.536Z,44.10
2017-04-28T17:04:09.652Z,45.60
2017-04-28T17:06:36.685Z,43.90
2017-04-28T17:09:03.799Z,43.80
2017-04-28T17:11:30.898Z,44.20
2017-04-28T17:13:57.924Z,43.30
2017-04-28T17:16:24.976Z,43.40
2017-04-28T17:18:52.041Z,43.40
2017-04-28T17:21:19.104Z,42.80
2017-04-28T17:23:47.282Z,48.60
2017-04-28T17:26:14.318Z,57.90
2017-04-28T17:28:42.129Z,61.10
2017-04-28T17:31:09.187Z,62.20
2017-04-28T17:33:36.245Z,62.70
2017-04-28T17:36:03.278Z,62.70
2017-04-28T17:38:30.347Z,65.10
2017-04-28T17:40:57.741Z,65.30
2017-04-28T17:43:24.782Z,64.20
2017-04-28T17:45:52.601Z,63.80
2017-04-28T17:48:19.648Z,64.50
2017-04-28T17:50:46.697Z,66.00
2017-04-28T17:53:13.741Z,66.40
2017-04-28T17:55:40.787Z,67.30
2017-04-28T17:58:07.990Z,67.60
2017-04-28T18:00:35.875Z,68.50
2017-04-28T18:03:03.320Z,68.50
2017-04-28T18:05:30.329Z,68.40
2017-04-28T18:07:57.433Z,69.10
2017-04-28T18:10:24.500Z,70.30
2017-04-28T18:12:51.520Z,70.80
2017-04-28T18:15:19.296Z,70.60
2017-04-28T18:17:46.366Z,70.70
2017-04-28T18:20:14.599Z,71.60
2017-04-28T18:22:41.675Z,72.90
2017-04-28T18:25:08.691Z,74.50
2017-04-28T18:27:35.750Z,75.70
2017-04-28T18:30:02.830Z,75.90
2017-04-28T18:32:29.877Z,76.00
2017-04-28T18:34:56.896Z,75.40
2017-04-28T18:37:24.720Z,75.10
2017-04-28T18:39:51.795Z,76.00
2017-04-28T18:42:19.359Z,75.20
2017-04-28T18:44:47.182Z,75.10
2017-04-28T18:47:14.256Z,75.40
2017-04-28T18:49:41.323Z,75.40
2017-04-28T18:52:09.112Z,74.70
2017-04-28T18:54:36.184Z,75.10
2017-04-28T18:57:03.223Z,73.60
2017-04-28T18:59:30.297Z,74.00
2017-04-28T19:01:57.330Z,74.50
2017-04-28T19:04:25.249Z,74.90
2017-04-28T19:06:52.405Z,75.30
2017-04-28T19:09:19.531Z,75.40
2017-04-28T19:11:46.601Z,75.80
2017-04-28T19:14:13.641Z,74.60
2017-04-28T19:16:41.000Z,74.40
2017-04-28T19:19:08.779Z,74.90
2017-04-28T19:21:36.583Z,74.40
2017-04-28T19:24:03.712Z,73.10
2017-04-28T19:26:30.784Z,73.80
2017-04-28T19:28:57.864Z,74.40
2017-04-28T19:31:24.932Z,73.10
2017-04-28T19:33:52.280Z,72.70
2017-04-28T19:36:20.061Z,73.90
2017-04-28T19:38:47.085Z,73.70
2017-04-28T19:41:14.154Z,74.60
2017-04-28T19:43:41.217Z,76.10
2017-04-28T19:46:08.645Z,74.40
2017-04-28T19:48:36.450Z,73.20
2017-04-28T19:51:03.484Z,75.00
2017-04-28T19:53:30.607Z,75.30
2017-04-28T19:55:58.422Z,74.90
2017-04-28T19:58:25.471Z,75.40
2017-04-28T20:00:52.521Z,75.90
2017-04-28T20:03:19.980Z,75.90
2017-04-28T20:05:47.021Z,75.90
2017-04-28T20:08:14.057Z,75.60
2017-04-28T20:10:41.194Z,74.60
2017-04-28T20:13:08.260Z,75.00
2017-04-28T20:15:35.310Z,74.60
2017-04-28T20:18:02.342Z,75.10
2017-04-28T20:20:30.318Z,75.40
2017-04-28T20:22:58.253Z,75.60
2017-04-28T20:25:25.593Z,76.10
2017-04-28T20:27:52.635Z,75.80
2017-04-28T20:30:19.682Z,75.30
2017-04-28T20:32:47.525Z,76.00
2017-04-28T20:35:14.578Z,77.10
2017-04-28T20:37:41.603Z,77.10
2017-04-28T20:40:08.641Z,77.00
2017-04-28T20:42:36.800Z,76.40
2017-04-28T20:45:03.852Z,76.30
2017-04-28T20:47:30.896Z,75.30
2017-04-28T20:49:58.703Z,75.30
2017-04-28T20:52:25.765Z,75.00
2017-04-28T20:54:52.836Z,75.90
2017-04-28T20:57:19.897Z,76.90
2017-04-28T20:59:47.264Z,77.20
2017-04-28T21:02:15.068Z,77.10
2017-04-28T21:04:42.105Z,76.40
2017-04-28T21:07:09.189Z,76.20
2017-04-28T21:09:37.086Z,76.60
2017-04-28T21:12:04.139Z,76.30
2017-04-28T21:14:31.201Z,76.70
2017-04-28T21:16:58.508Z,77.30
2017-04-28T21:19:25.537Z,77.20
2017-04-28T21:21:52.565Z,76.40
2017-04-28T21:24:19.639Z,75.40
2017-04-28T21:26:46.701Z,76.40
2017-04-28T21:29:13.767Z,75.80
2017-04-28T21:31:41.575Z,76.20
2017-04-28T21:34:08.637Z,76.40
2017-04-28T21:36:35.689Z,76.40
2017-04-28T21:39:03.098Z,77.20
2017-04-28T21:41:30.156Z,78.00
2017-04-28T21:43:57.928Z,77.30
2017-04-28T21:46:25.208Z,76.80
2017-04-28T21:48:52.237Z,77.70
2017-04-28T21:51:19.310Z,77.50
2017-04-28T21:53:46.354Z,78.00
2017-04-28T21:56:13.965Z,77.80
2017-04-28T21:58:41.065Z,78.40
2017-04-28T22:01:08.128Z,78.50
2017-04-28T22:03:35.145Z,78.70
2017-04-28T22:06:02.187Z,78.10
2017-04-28T22:08:29.301Z,77.60
2017-04-28T22:10:57.084Z,77.50
2017-04-28T22:13:25.227Z,78.60
2017-04-28T22:16:08.185Z,79.60
2017-04-28T22:18:35.265Z,79.30
2017-04-28T22:21:02.295Z,80.10
2017-04-28T22:23:29.818Z,79.00
2017-04-28T22:25:56.892Z,79.70
2017-04-28T22:28:24.666Z,80.30
2017-04-28T22:30:51.748Z,81.00
2017-04-28T22:33:18.781Z,80.70
2017-04-28T22:35:46.051Z,79.90
2017-04-28T22:38:13.108Z,79.70
2017-04-28T22:40:40.117Z,80.10
2017-04-28T22:43:07.170Z,80.70
2017-04-28T22:45:34.223Z,80.60
2017-04-28T22:48:01.772Z,80.50
2017-04-28T22:50:28.770Z,80.40
2017-04-28T22:52:55.801Z,79.80
2017-04-28T22:55:22.844Z,80.40
2017-04-28T22:57:49.881Z,80.80
2017-04-28T23:00:17.074Z,81.70
2017-04-28T23:02:44.094Z,81.30
2017-04-28T23:05:11.459Z,81.70
2017-04-28T23:07:38.584Z,81.80
2017-04-28T23:10:05.668Z,82.40
2017-04-28T23:12:32.713Z,83.30
2017-04-28T23:14:59.729Z,83.20
2017-04-28T23:17:26.793Z,83.50
2017-04-28T23:19:53.846Z,83.30
2017-04-28T23:22:21.187Z,81.50
2017-04-28T23:24:48.220Z,79.90
2017-04-28T23:27:15.237Z,77.20
2017-04-28T23:29:42.308Z,76.60
2017-04-28T23:32:09.336Z,76.40
2017-04-28T23:34:36.379Z,74.70
2017-04-28T23:37:03.389Z,74.30
2017-04-28T23:39:30.709Z,73.70
2017-04-28T23:41:57.699Z,75.00
2017-04-28T23:44:24.744Z,75.00
2017-04-28T23:46:51.800Z,76.40
2017-04-28T23:49:19.576Z,76.40
2017-04-28T23:51:46.772Z,76.80
2017-04-28T23:54:13.820Z,77.00
2017-04-28T23:56:41.233Z,77.70
2017-04-28T23:59:09.023Z,78.20
